createdAt,value
2023-04-23T00:01:20.697Z,16.31
2023-04-23T00:03:50.973Z,16.48
2023-04-23T00:06:19.177Z,16.54
2023-04-23T00:08:48.983Z,16.57
2023-04-23T00:11:17.900Z,16.40
2023-04-23T00:13:47.496Z,16.56
2023-04-23T00:16:17.817Z,16.49
2023-04-23T00:18:46.782Z,16.42
2023-04-23T00:21:15.182Z,16.58
2023-04-23T00:23:43.136Z,16.55
2023-04-23T00:26:11.909Z,16.32
2023-04-23T00:28:39.916Z,16.45
2023-04-23T00:31:08.033Z,16.31
2023-04-23T00:33:39.940Z,16.38
2023-04-23T00:36:08.673Z,16.43
2023-04-23T00:38:37.400Z,16.39
2023-04-23T00:41:06.115Z,16.00
2023-04-23T00:43:34.836Z,16.25
2023-04-23T00:46:02.919Z,16.13
2023-04-23T00:48:31.281Z,15.93
2023-04-23T00:51:04.282Z,15.97
2023-04-23T00:53:32.372Z,15.91
2023-04-23T00:56:02.908Z,15.78
2023-04-23T00:58:30.958Z,15.80
2023-04-23T01:00:59.886Z,15.71
2023-04-23T01:03:29.816Z,15.69
2023-04-23T01:05:58.409Z,15.87
2023-04-23T01:08:32.615Z,15.95
2023-04-23T01:11:01.531Z,15.82
2023-04-23T01:13:30.340Z,15.74
2023-04-23T01:15:58.626Z,15.91
2023-04-23T01:18:28.162Z,16.00
2023-04-23T01:20:56.535Z,16.01
2023-04-23T01:23:27.203Z,15.78
2023-04-23T01:25:55.523Z,15.89
2023-04-23T01:28:23.542Z,15.67
2023-04-23T01:30:52.834Z,15.92
2023-04-23T01:33:21.203Z,15.75
2023-04-23T01:35:51.274Z,15.84
2023-04-23T01:38:21.545Z,15.53
2023-04-23T01:40:50.871Z,15.55
2023-04-23T01:43:18.968Z,15.32
2023-04-23T01:45:47.396Z,15.72
2023-04-23T01:48:15.896Z,15.40
2023-04-23T01:50:44.927Z,15.53
2023-04-23T01:53:12.866Z,15.74
2023-04-23T01:55:41.411Z,15.73
2023-04-23T01:58:10.703Z,15.73
2023-04-23T02:00:38.713Z,15.82
2023-04-23T02:03:07.160Z,15.86
2023-04-23T02:05:36.967Z,15.92
2023-04-23T02:08:05.429Z,15.89
2023-04-23T02:10:33.561Z,15.90
2023-04-23T02:13:02.714Z,15.87
2023-04-23T02:15:32.564Z,15.81
2023-04-23T02:18:01.863Z,15.60
2023-04-23T02:20:29.755Z,15.77
2023-04-23T02:22:57.756Z,15.70
2023-04-23T02:25:27.819Z,15.62
2023-04-23T02:27:57.626Z,15.58
2023-04-23T02:30:25.762Z,15.66
2023-04-23T02:32:55.631Z,15.73
2023-04-23T02:35:23.970Z,15.72
2023-04-23T02:37:52.232Z,15.70
2023-04-23T02:40:20.371Z,15.43
2023-04-23T02:42:48.297Z,15.52
2023-04-23T02:45:16.383Z,15.38
2023-04-23T02:47:45.169Z,15.14
2023-04-23T02:50:14.630Z,15.05
2023-04-23T02:52:42.545Z,14.93
2023-04-23T02:55:12.151Z,14.96
2023-04-23T02:57:40.982Z,14.71
2023-04-23T03:00:12.358Z,14.79
2023-04-23T03:02:43.596Z,15.04
2023-04-23T03:05:15.606Z,15.18
2023-04-23T03:07:43.736Z,15.26
2023-04-23T03:10:12.165Z,15.33
2023-04-23T03:12:40.283Z,15.35
2023-04-23T03:15:08.951Z,15.36
2023-04-23T03:17:38.478Z,14.59
2023-04-23T03:20:10.997Z,14.75
2023-04-23T03:22:41.370Z,14.74
2023-04-23T03:25:10.333Z,14.57
2023-04-23T03:27:40.387Z,14.76
2023-04-23T03:30:09.997Z,14.10
2023-04-23T03:32:38.350Z,14.63
2023-04-23T03:35:07.113Z,14.38
2023-04-23T03:37:35.169Z,14.60
2023-04-23T03:40:07.807Z,14.72
2023-04-23T03:42:39.414Z,14.86
2023-04-23T03:45:09.454Z,14.82
2023-04-23T03:47:37.713Z,14.83
2023-04-23T03:50:07.128Z,14.82
2023-04-23T03:52:35.622Z,14.66
2023-04-23T03:55:05.370Z,14.73
2023-04-23T03:57:40.405Z,14.86
2023-04-23T04:00:41.103Z,14.86
2023-04-23T04:03:10.257Z,14.90
2023-04-23T04:05:40.654Z,14.72
2023-04-23T04:08:10.476Z,14.75
2023-04-23T04:10:40.921Z,14.79
2023-04-23T04:13:08.922Z,14.62
2023-04-23T04:15:36.927Z,14.49
2023-04-23T04:18:04.879Z,14.68
2023-04-23T04:20:32.701Z,14.77
2023-04-23T04:23:00.722Z,14.66
2023-04-23T04:25:30.950Z,14.61
2023-04-23T04:28:00.453Z,14.47
2023-04-23T04:30:28.343Z,14.30
2023-04-23T04:32:56.305Z,14.18
2023-04-23T04:35:24.425Z,14.08
2023-04-23T04:37:54.863Z,14.08
2023-04-23T04:40:22.991Z,14.16
2023-04-23T04:42:51.464Z,14.10
2023-04-23T04:45:20.950Z,14.09
2023-04-23T04:47:48.873Z,14.18
2023-04-23T04:50:17.063Z,13.84
2023-04-23T04:52:45.043Z,14.12
2023-04-23T04:55:12.935Z,14.06
2023-04-23T04:57:40.871Z,14.02
2023-04-23T05:00:24.657Z,14.06
2023-04-23T05:02:53.156Z,14.24
2023-04-23T05:05:25.036Z,14.31
2023-04-23T05:07:54.291Z,14.42
2023-04-23T05:10:22.710Z,14.56
2023-04-23T05:12:51.911Z,14.52
2023-04-23T05:15:20.118Z,14.55
2023-04-23T05:17:50.337Z,14.73
2023-04-23T05:20:21.149Z,14.87
2023-04-23T05:22:49.175Z,15.01
2023-04-23T05:25:17.288Z,15.16
2023-04-23T05:27:45.304Z,15.10
2023-04-23T05:30:13.489Z,15.19
2023-04-23T05:32:41.604Z,15.27
2023-04-23T05:35:11.156Z,15.37
2023-04-23T05:37:40.167Z,15.41
2023-04-23T05:40:11.442Z,15.36
2023-04-23T05:42:39.538Z,15.74
2023-04-23T05:45:09.312Z,15.83
2023-04-23T05:47:37.843Z,16.13
2023-04-23T05:50:07.109Z,16.32
2023-04-23T05:52:37.345Z,16.41
2023-04-23T05:55:09.921Z,16.55
2023-04-23T05:57:38.714Z,16.74
2023-04-23T06:00:11.209Z,16.73
2023-04-23T06:02:43.151Z,16.17
2023-04-23T06:05:12.101Z,16.26
2023-04-23T06:07:41.705Z,16.21
2023-04-23T06:10:10.891Z,16.29
2023-04-23T06:12:39.938Z,16.33
2023-04-23T06:15:09.320Z,16.28
2023-04-23T06:17:37.803Z,16.23
2023-04-23T06:20:07.323Z,16.34
2023-04-23T06:22:35.590Z,16.44
2023-04-23T06:25:05.592Z,16.50
2023-04-23T06:27:33.884Z,16.54
2023-04-23T06:30:09.509Z,16.52
2023-04-23T06:32:37.519Z,16.08
2023-04-23T06:35:06.264Z,16.10
2023-04-23T06:37:34.302Z,16.16
2023-04-23T06:40:02.390Z,16.35
2023-04-23T06:42:31.795Z,16.31
2023-04-23T06:45:15.659Z,16.38
2023-04-23T06:47:43.723Z,16.43
2023-04-23T06:50:12.046Z,16.86
2023-04-23T06:52:40.288Z,16.79
2023-04-23T06:55:10.116Z,17.09
2023-04-23T06:57:41.428Z,17.15
2023-04-23T07:00:11.872Z,17.63
2023-04-23T07:02:42.833Z,17.09
2023-04-23T07:05:12.367Z,17.28
2023-04-23T07:07:43.548Z,17.25
2023-04-23T07:10:16.291Z,17.68
2023-04-23T07:12:47.199Z,17.68
2023-04-23T07:15:15.909Z,17.27
2023-04-23T07:17:43.991Z,17.33
2023-04-23T07:20:12.581Z,17.43
2023-04-23T07:22:40.807Z,17.03
2023-04-23T07:25:09.792Z,17.00
2023-04-23T07:27:37.978Z,17.01
2023-04-23T07:30:10.455Z,17.04
2023-04-23T07:32:41.321Z,16.96
2023-04-23T07:35:12.067Z,17.25
2023-04-23T07:37:40.123Z,17.02
2023-04-23T07:40:10.563Z,17.18
2023-04-23T07:42:39.479Z,17.11
2023-04-23T07:45:12.739Z,17.42
2023-04-23T07:47:41.105Z,17.55
2023-04-23T07:50:10.039Z,17.74
2023-04-23T07:52:38.120Z,17.93
2023-04-23T07:55:07.501Z,17.62
2023-04-23T07:57:35.378Z,17.89
2023-04-23T08:00:03.505Z,19.04
2023-04-23T08:02:41.520Z,19.24
2023-04-23T08:05:10.747Z,19.49
2023-04-23T08:07:39.572Z,19.19
2023-04-23T08:10:08.783Z,19.30
2023-04-23T08:12:36.835Z,19.44
2023-04-23T08:15:05.463Z,19.02
2023-04-23T08:17:41.870Z,19.11
2023-04-23T08:20:10.463Z,19.31
2023-04-23T08:22:38.472Z,18.96
2023-04-23T08:25:07.554Z,18.47
2023-04-23T08:27:42.703Z,18.68
2023-04-23T08:30:22.099Z,18.22
2023-04-23T08:32:54.724Z,18.91
2023-04-23T08:35:23.651Z,19.28
2023-04-23T08:37:52.342Z,19.56
2023-04-23T08:40:21.351Z,18.79
2023-04-23T08:43:03.347Z,19.33
2023-04-23T08:45:32.053Z,18.99
2023-04-23T08:48:03.191Z,17.99
2023-04-23T08:50:32.004Z,19.09
2023-04-23T08:53:01.498Z,19.32
2023-04-23T08:55:29.947Z,18.84
2023-04-23T08:58:00.388Z,19.79
2023-04-23T09:00:32.105Z,19.28
2023-04-23T09:03:02.634Z,19.75
2023-04-23T09:05:34.051Z,21.06
2023-04-23T09:08:02.338Z,20.97
2023-04-23T09:10:35.518Z,21.22
2023-04-23T09:13:03.935Z,20.32
2023-04-23T09:15:31.924Z,19.26
2023-04-23T09:18:02.866Z,18.88
2023-04-23T09:20:30.920Z,19.01
2023-04-23T09:22:58.861Z,19.37
2023-04-23T09:25:27.412Z,18.88
2023-04-23T09:27:55.503Z,19.84
2023-04-23T09:30:25.792Z,19.40
2023-04-23T09:32:54.149Z,19.86
2023-04-23T09:35:30.100Z,20.53
2023-04-23T09:37:58.456Z,21.66
2023-04-23T09:40:28.957Z,21.50
2023-04-23T09:42:57.090Z,21.33
2023-04-23T09:45:26.168Z,21.80
2023-04-23T09:47:55.592Z,20.92
2023-04-23T09:50:33.772Z,21.23
2023-04-23T09:53:03.452Z,21.64
2023-04-23T09:55:37.830Z,21.98
2023-04-23T09:58:07.131Z,22.10
2023-04-23T10:00:37.628Z,21.49
2023-04-23T10:03:09.040Z,21.86
2023-04-23T10:08:14.632Z,21.05
2023-04-23T10:10:57.393Z,20.70
2023-04-23T10:13:31.296Z,21.49
2023-04-23T10:16:18.075Z,20.83
2023-04-23T10:18:49.883Z,21.76
2023-04-23T10:21:21.653Z,20.83
2023-04-23T10:23:52.975Z,21.00
2023-04-23T10:26:24.969Z,20.60
2023-04-23T10:28:55.867Z,20.61
2023-04-23T10:31:24.723Z,20.58
2023-04-23T10:33:59.399Z,21.22
2023-04-23T10:36:30.285Z,21.09
2023-04-23T10:39:04.083Z,21.81
2023-04-23T10:41:39.374Z,21.87
2023-04-23T10:44:15.947Z,22.03
2023-04-23T10:46:55.230Z,21.36
2023-04-23T10:49:25.204Z,21.55
2023-04-23T10:54:36.768Z,22.05
2023-04-23T10:57:07.269Z,22.36
2023-04-23T10:59:37.140Z,22.43
2023-04-23T11:02:11.062Z,22.24
2023-04-23T11:04:46.025Z,21.43
2023-04-23T11:07:16.713Z,22.17
2023-04-23T11:09:47.709Z,22.44
2023-04-23T11:12:33.982Z,23.08
2023-04-23T11:15:12.360Z,22.97
2023-04-23T11:18:02.203Z,22.55
2023-04-23T11:20:31.148Z,23.34
2023-04-23T11:23:01.192Z,23.42
2023-04-23T11:25:30.404Z,23.16
2023-04-23T11:27:59.610Z,23.26
2023-04-23T11:30:29.313Z,22.32
2023-04-23T11:32:59.999Z,22.62
2023-04-23T11:35:30.086Z,23.88
2023-04-23T11:37:58.069Z,23.64
2023-04-23T11:40:30.885Z,24.69
2023-04-23T11:42:59.142Z,24.00
2023-04-23T11:45:29.106Z,24.00
2023-04-23T11:47:58.924Z,24.12
2023-04-23T11:50:29.692Z,24.62
2023-04-23T11:52:58.626Z,24.41
2023-04-23T11:55:30.558Z,24.48
2023-04-23T11:57:59.350Z,24.78
2023-04-23T12:00:28.458Z,25.07
2023-04-23T12:02:58.993Z,24.75
2023-04-23T12:05:30.937Z,24.61
2023-04-23T12:08:08.893Z,25.43
2023-04-23T12:10:46.948Z,25.21
2023-04-23T12:13:15.899Z,25.24
2023-04-23T12:15:51.358Z,24.72
2023-04-23T12:19:15.587Z,25.07
2023-04-23T12:22:35.060Z,24.58
2023-04-23T12:25:18.183Z,24.05
2023-04-23T12:28:17.658Z,23.73
2023-04-23T12:30:48.188Z,24.03
2023-04-23T12:33:16.999Z,23.78
2023-04-23T12:35:46.778Z,23.96
2023-04-23T12:38:25.246Z,24.23
2023-04-23T12:40:54.816Z,25.12
2023-04-23T12:43:24.551Z,24.83
2023-04-23T12:45:52.511Z,25.33
2023-04-23T12:48:20.574Z,26.05
2023-04-23T12:50:51.338Z,25.24
2023-04-23T12:53:21.794Z,25.40
2023-04-23T12:55:50.257Z,24.21
2023-04-23T12:58:18.253Z,24.18
2023-04-23T13:00:47.644Z,24.23
2023-04-23T13:03:17.472Z,25.24
2023-04-23T13:05:45.464Z,26.23
2023-04-23T13:08:13.574Z,24.84
2023-04-23T13:10:41.617Z,24.28
2023-04-23T13:13:09.575Z,23.65
2023-04-23T13:15:37.744Z,24.32
2023-04-23T13:18:07.507Z,24.33
2023-04-23T13:20:35.494Z,25.42
2023-04-23T13:23:03.865Z,24.90
2023-04-23T13:25:34.260Z,25.14
2023-04-23T13:28:02.251Z,25.33
2023-04-23T13:30:30.317Z,24.85
2023-04-23T13:32:59.293Z,25.03
2023-04-23T13:35:28.786Z,25.37
2023-04-23T13:37:56.884Z,25.86
2023-04-23T13:40:27.397Z,24.61
2023-04-23T13:42:55.584Z,25.21
2023-04-23T13:45:23.557Z,24.71
2023-04-23T13:47:51.998Z,25.48
2023-04-23T13:50:20.039Z,24.46
2023-04-23T13:52:49.338Z,24.41
2023-04-23T13:55:17.356Z,24.25
2023-04-23T13:57:45.854Z,25.21
2023-04-23T14:00:15.002Z,24.57
2023-04-23T14:02:43.065Z,24.41
2023-04-23T14:05:11.234Z,24.40
2023-04-23T14:07:39.170Z,25.07
2023-04-23T14:10:09.689Z,25.21
2023-04-23T14:12:38.957Z,24.76
2023-04-23T14:15:08.560Z,24.91
2023-04-23T14:17:37.213Z,25.11
2023-04-23T14:20:06.545Z,24.69
2023-04-23T14:22:34.554Z,24.53
2023-04-23T14:25:04.351Z,24.58
2023-04-23T14:27:42.038Z,24.89
2023-04-23T14:30:17.052Z,24.47
2023-04-23T14:32:48.442Z,24.59
2023-04-23T14:35:26.770Z,24.78
2023-04-23T14:38:19.394Z,24.54
2023-04-23T14:40:47.311Z,24.44
2023-04-23T14:43:16.935Z,24.20
2023-04-23T14:45:45.395Z,24.65
2023-04-23T14:48:13.550Z,23.84
2023-04-23T14:50:41.577Z,23.55
2023-04-23T14:53:11.232Z,23.98
2023-04-23T14:55:42.871Z,24.14
2023-04-23T14:58:11.156Z,23.94
2023-04-23T15:00:42.640Z,23.72
2023-04-23T15:03:11.464Z,24.04
2023-04-23T15:05:41.683Z,23.86
2023-04-23T15:08:09.697Z,23.36
2023-04-23T15:10:37.971Z,23.61
2023-04-23T15:13:30.389Z,23.51
2023-04-23T15:16:05.740Z,23.06
2023-04-23T15:18:36.112Z,22.49
2023-04-23T15:21:11.608Z,22.17
2023-04-23T15:24:19.495Z,23.02
2023-04-23T15:27:00.763Z,23.33
2023-04-23T15:30:05.166Z,23.65
2023-04-23T15:33:16.231Z,23.36
2023-04-23T15:36:00.779Z,23.62
2023-04-23T15:38:31.035Z,23.65
2023-04-23T15:41:00.471Z,23.21
2023-04-23T15:43:55.470Z,23.06
2023-04-23T15:46:53.472Z,22.52
2023-04-23T15:49:43.400Z,22.03
2023-04-23T15:52:21.202Z,21.79
2023-04-23T15:55:06.839Z,21.21
2023-04-23T15:58:04.149Z,21.31
2023-04-23T16:00:53.737Z,21.09
2023-04-23T16:03:28.560Z,21.33
2023-04-23T16:06:36.980Z,21.33
2023-04-23T16:09:48.431Z,21.07
2023-04-23T16:12:48.920Z,21.32
2023-04-23T16:15:17.909Z,21.27
2023-04-23T16:17:47.140Z,21.22
2023-04-23T16:20:16.226Z,21.30
2023-04-23T16:23:04.281Z,21.62
2023-04-23T16:25:39.149Z,21.46
2023-04-23T16:28:13.229Z,21.38
2023-04-23T16:30:48.485Z,21.39
2023-04-23T16:33:51.952Z,21.14
2023-04-23T16:36:42.807Z,20.20
2023-04-23T16:39:13.469Z,19.78
2023-04-23T16:41:42.125Z,18.14
2023-04-23T16:44:11.709Z,17.64
2023-04-23T16:46:57.947Z,16.98
2023-04-23T16:49:26.702Z,17.81
2023-04-23T16:51:57.633Z,16.56
2023-04-23T16:54:27.357Z,16.90
2023-04-23T16:56:55.478Z,18.17
2023-04-23T16:59:24.785Z,18.98
2023-04-23T17:01:54.604Z,19.30
2023-04-23T17:04:24.924Z,19.29
2023-04-23T17:06:55.312Z,19.56
2023-04-23T17:09:23.365Z,19.22
2023-04-23T17:11:52.774Z,18.51
2023-04-23T17:14:20.749Z,18.39
2023-04-23T17:16:48.735Z,18.91
2023-04-23T17:19:19.130Z,19.33
2023-04-23T17:21:49.832Z,18.92
2023-04-23T17:24:18.210Z,18.51
2023-04-23T17:26:47.620Z,19.00
2023-04-23T17:29:17.036Z,18.14
2023-04-23T17:31:46.511Z,18.23
2023-04-23T17:34:14.846Z,18.34
2023-04-23T17:36:42.920Z,18.21
2023-04-23T17:39:15.287Z,18.38
2023-04-23T17:41:44.393Z,18.27
2023-04-23T17:44:17.369Z,18.14
2023-04-23T17:46:54.744Z,17.92
2023-04-23T17:49:27.044Z,17.29
2023-04-23T17:51:58.843Z,17.92
2023-04-23T17:54:26.989Z,18.23
2023-04-23T17:56:56.106Z,17.75
2023-04-23T17:59:27.675Z,17.98
2023-04-23T18:01:59.055Z,17.95
2023-04-23T18:04:29.107Z,17.45
2023-04-23T18:06:57.600Z,17.54
2023-04-23T18:09:27.833Z,18.24
2023-04-23T18:12:05.687Z,17.83
2023-04-23T18:14:36.116Z,17.44
2023-04-23T18:17:08.123Z,18.12
2023-04-23T18:19:37.378Z,17.44
2023-04-23T18:22:14.294Z,17.47
2023-04-23T18:25:02.057Z,17.94
2023-04-23T18:27:35.765Z,17.75
2023-04-23T18:30:09.587Z,17.32
2023-04-23T18:32:43.696Z,17.72
2023-04-23T18:35:23.174Z,17.42
2023-04-23T18:38:02.624Z,17.68
2023-04-23T18:40:31.453Z,17.46
2023-04-23T18:43:00.132Z,17.63
2023-04-23T18:45:31.101Z,16.39
2023-04-23T18:48:19.563Z,16.89
2023-04-23T18:50:51.126Z,16.93
2023-04-23T18:53:21.582Z,17.25
2023-04-23T18:55:50.527Z,17.24
2023-04-23T18:58:18.721Z,17.39
2023-04-23T19:00:48.480Z,17.29
2023-04-23T19:03:26.141Z,17.43
2023-04-23T19:05:56.267Z,17.50
2023-04-23T19:08:28.659Z,17.60
2023-04-23T19:10:57.185Z,17.44
2023-04-23T19:13:25.557Z,17.48
2023-04-23T19:15:55.339Z,17.19
2023-04-23T19:18:24.189Z,16.62
2023-04-23T19:20:52.594Z,16.67
2023-04-23T19:23:21.485Z,16.22
2023-04-23T19:25:49.858Z,16.33
2023-04-23T19:28:18.103Z,16.15
2023-04-23T19:30:46.965Z,16.02
2023-04-23T19:33:16.782Z,16.37
2023-04-23T19:35:44.972Z,16.10
2023-04-23T19:38:13.488Z,16.17
2023-04-23T19:40:42.812Z,16.66
2023-04-23T19:43:12.785Z,16.20
2023-04-23T19:45:41.117Z,15.86
2023-04-23T19:48:09.258Z,15.97
2023-04-23T19:50:38.825Z,15.93
2023-04-23T19:53:07.108Z,16.10
2023-04-23T19:55:36.263Z,16.09
2023-04-23T19:58:06.511Z,16.43
2023-04-23T20:00:37.703Z,16.06
2023-04-23T20:03:06.986Z,16.21
2023-04-23T20:05:36.089Z,16.19
2023-04-23T20:08:11.744Z,16.31
2023-04-23T20:10:39.998Z,16.20
2023-04-23T20:13:08.548Z,16.04
2023-04-23T20:15:37.022Z,16.15
2023-04-23T20:18:05.631Z,16.07
2023-04-23T20:20:36.611Z,16.08
2023-04-23T20:23:06.580Z,15.81
2023-04-23T20:25:36.371Z,16.19
2023-04-23T20:28:05.222Z,16.04
2023-04-23T20:30:33.571Z,15.79
2023-04-23T20:33:01.858Z,15.53
2023-04-23T20:35:30.789Z,15.42
2023-04-23T20:38:01.382Z,15.42
2023-04-23T20:40:34.628Z,15.68
2023-04-23T20:43:04.654Z,15.20
2023-04-23T20:45:34.584Z,15.12
2023-04-23T20:48:03.741Z,15.03
2023-04-23T20:50:32.813Z,15.41
2023-04-23T20:53:02.533Z,15.43
2023-04-23T20:55:33.785Z,15.31
2023-04-23T20:58:04.509Z,14.96
2023-04-23T21:00:35.019Z,15.07
2023-04-23T21:03:03.582Z,14.63
2023-04-23T21:05:34.636Z,15.23
2023-04-23T21:08:03.046Z,15.49
2023-04-23T21:10:31.269Z,15.20
2023-04-23T21:13:01.191Z,15.26
2023-04-23T21:15:34.106Z,15.43
2023-04-23T21:18:03.168Z,14.94
2023-04-23T21:20:33.800Z,14.86
2023-04-23T21:23:02.504Z,14.96
2023-04-23T21:25:35.407Z,14.85
2023-04-23T21:28:05.875Z,15.11
2023-04-23T21:30:46.102Z,15.42
2023-04-23T21:33:15.213Z,15.40
2023-04-23T21:35:44.412Z,15.31
2023-04-23T21:38:15.926Z,15.19
2023-04-23T21:40:45.240Z,15.31
2023-04-23T21:43:16.485Z,15.38
2023-04-23T21:45:45.049Z,15.22
2023-04-23T21:48:13.410Z,15.08
2023-04-23T21:50:42.193Z,15.10
2023-04-23T21:53:13.317Z,15.44
2023-04-23T21:55:42.443Z,15.29
2023-04-23T21:58:17.124Z,15.50
2023-04-23T22:00:49.006Z,15.40
2023-04-23T22:03:26.159Z,15.45
2023-04-23T22:06:09.452Z,15.30
2023-04-23T22:08:40.303Z,15.41
2023-04-23T22:11:09.025Z,15.33
2023-04-23T22:13:37.653Z,15.34
2023-04-23T22:16:20.326Z,14.69
2023-04-23T22:18:53.664Z,14.85
2023-04-23T22:21:22.044Z,14.72
2023-04-23T22:23:51.095Z,15.17
2023-04-23T22:26:19.906Z,14.67
2023-04-23T22:28:47.848Z,14.78
2023-04-23T22:31:19.018Z,14.80
2023-04-23T22:33:53.228Z,14.50
2023-04-23T22:36:21.444Z,14.76
2023-04-23T22:38:49.659Z,14.65
2023-04-23T22:41:17.622Z,15.00
2023-04-23T22:43:46.449Z,14.57
2023-04-23T22:46:14.712Z,15.01
2023-04-23T22:48:47.759Z,14.65
2023-04-23T22:51:15.723Z,15.02
2023-04-23T22:53:44.366Z,15.19
2023-04-23T22:56:15.133Z,14.78
2023-04-23T22:58:43.050Z,14.61
2023-04-23T23:01:11.051Z,15.05
2023-04-23T23:03:39.482Z,14.77
2023-04-23T23:06:09.173Z,14.65
2023-04-23T23:08:37.135Z,14.82
2023-04-23T23:11:05.313Z,14.80
2023-04-23T23:13:33.291Z,14.70
2023-04-23T23:16:05.032Z,14.67
2023-04-23T23:18:33.826Z,14.55
2023-04-23T23:21:02.059Z,14.72
2023-04-23T23:23:31.791Z,14.32
2023-04-23T23:26:00.366Z,14.56
2023-04-23T23:28:28.673Z,14.55
2023-04-23T23:30:58.084Z,13.89
2023-04-23T23:33:27.186Z,14.34
2023-04-23T23:35:56.219Z,14.24
2023-04-23T23:38:25.295Z,14.44
2023-04-23T23:40:54.692Z,14.38
2023-04-23T23:43:23.007Z,13.87
2023-04-23T23:45:51.845Z,14.38
2023-04-23T23:48:20.332Z,14.35
2023-04-23T23:50:48.400Z,14.40
2023-04-23T23:53:16.389Z,14.73
2023-04-23T23:55:45.008Z,14.75
2023-04-23T23:58:14.731Z,14.56
